Time;durP1;ratioP1;P1;durP2;ratioP2;P2;SDS_P1;SDS_P2;PMS_P1;PMS_P2;Temp;Humidity;BMP_temperature;BMP_pressure;BME280_temperature;BME280_humidity;BME280_pressure;Samples;Min_cycle;Max_cycle;Signal;HPM_P1;HPM_P2
2022/12/02 00:02:23;;;;;;;48.30;22.85;;;;;;;;;;5039929;28;20049;-78
2022/12/02 00:04:54;;;;;;;49.03;22.80;;;;;;;;;;5040104;28;20041;-78
2022/12/02 00:07:23;;;;;;;53.30;21.60;;;;;;;;;;5038682;28;20044;-78
2022/12/02 00:09:49;;;;;;;56.47;21.63;;;;;;;;;;5027380;28;20116;-78
2022/12/02 00:12:18;;;;;;;50.40;22.20;;;;;;;;;;5038646;28;20499;-78
2022/12/02 00:14:45;;;;;;;56.05;22.45;;;;;;;;;;5019896;28;20077;-78
2022/12/02 00:17:11;;;;;;;53.45;21.63;;;;;;;;;;5025437;28;20072;-78
2022/12/02 00:19:37;;;;;;;47.30;20.67;;;;;;;;;;5039654;28;20045;-78
2022/12/02 00:22:03;;;;;;;46.90;21.50;;;;;;;;;;5039387;28;20504;-78
2022/12/02 00:24:29;;;;;;;47.63;21.60;;;;;;;;;;5039650;28;20052;-78
2022/12/02 00:26:55;;;;;;;47.08;21.38;;;;;;;;;;5039700;28;20046;-78
2022/12/02 00:29:23;;;;;;;52.63;22.00;;;;;;;;;;5039089;28;20076;-78
2022/12/02 00:31:49;;;;;;;50.97;22.10;;;;;;;;;;5018311;28;20046;-78
2022/12/02 00:34:15;;;;;;;46.92;20.80;;;;;;;;;;5026383;28;20044;-78
2022/12/02 00:36:41;;;;;;;50.15;21.77;;;;;;;;;;5039113;28;20042;-79
2022/12/02 00:39:07;;;;;;;49.97;24.00;;;;;;;;;;5038997;28;20045;-78
2022/12/02 00:41:33;;;;;;;44.28;20.48;;;;;;;;;;5037495;28;20045;-78
2022/12/02 00:46:47;;;;;;;43.42;19.10;;;;;;;;;;5038930;28;20081;-78
2022/12/02 00:49:14;;;;;;;48.58;21.45;;;;;;;;;;5038634;28;20045;-78
2022/12/02 00:51:41;;;;;;;47.15;20.45;;;;;;;;;;5037261;28;20162;-78
2022/12/02 00:54:07;;;;;;;40.45;20.00;;;;;;;;;;5037434;28;20045;-78
2022/12/02 00:56:34;;;;;;;45.05;20.33;;;;;;;;;;5038493;28;20456;-78
2022/12/02 00:59:00;;;;;;;45.08;20.73;;;;;;;;;;5038832;28;20065;-78
2022/12/02 01:01:26;;;;;;;42.55;20.67;;;;;;;;;;5039014;28;20129;-78
2022/12/02 01:03:52;;;;;;;45.92;19.88;;;;;;;;;;5038281;28;20048;-78
2022/12/02 01:06:19;;;;;;;45.05;21.73;;;;;;;;;;5038632;28;20052;-78
2022/12/02 01:08:45;;;;;;;43.55;19.40;;;;;;;;;;5037972;28;20103;-78
2022/12/02 01:11:12;;;;;;;42.55;19.38;;;;;;;;;;5038077;28;20045;-78
2022/12/02 01:13:38;;;;;;;43.38;20.27;;;;;;;;;;5038129;28;20044;-78
2022/12/02 01:16:04;;;;;;;42.00;20.13;;;;;;;;;;5038530;28;20103;-78
2022/12/02 01:18:30;;;;;;;42.70;19.85;;;;;;;;;;5037401;28;20057;-78
2022/12/02 01:20:57;;;;;;;44.70;19.90;;;;;;;;;;5038046;28;20053;-78
2022/12/02 01:23:24;;;;;;;44.53;20.15;;;;;;;;;;5037787;28;20450;-78
2022/12/02 01:25:50;;;;;;;44.30;20.52;;;;;;;;;;5038269;28;20061;-78
2022/12/02 01:28:16;;;;;;;45.78;19.38;;;;;;;;;;5038520;28;20049;-78
2022/12/02 01:30:43;;;;;;;41.80;20.77;;;;;;;;;;5042166;28;20091;-78
2022/12/02 01:33:09;;;;;;;42.10;20.48;;;;;;;;;;5047409;28;20068;-78
2022/12/02 01:35:35;;;;;;;44.28;19.83;;;;;;;;;;5044768;28;20091;-78
2022/12/02 01:38:01;;;;;;;42.85;19.50;;;;;;;;;;5038168;28;20047;-78
2022/12/02 01:40:28;;;;;;;43.17;19.73;;;;;;;;;;5037670;28;20054;-79
2022/12/02 01:42:54;;;;;;;47.35;20.42;;;;;;;;;;5037565;28;20153;-79
2022/12/02 01:45:20;;;;;;;43.67;19.70;;;;;;;;;;5035436;28;20080;-78
2022/12/02 01:47:46;;;;;;;42.95;18.38;;;;;;;;;;5032920;28;20042;-78
2022/12/02 01:50:14;;;;;;;45.15;19.67;;;;;;;;;;5023706;28;20444;-78
2022/12/02 01:52:40;;;;;;;45.17;20.33;;;;;;;;;;5017999;28;20057;-78
2022/12/02 01:55:10;;;;;;;42.13;18.95;;;;;;;;;;5017895;28;20076;-78
2022/12/02 01:57:36;;;;;;;39.53;19.02;;;;;;;;;;5018103;28;20484;-78
2022/12/02 02:00:03;;;;;;;44.92;21.17;;;;;;;;;;5017207;28;20038;-78
2022/12/02 02:02:37;;;;;;;44.17;19.58;;;;;;;;;;5017411;28;20446;-78
2022/12/02 02:05:07;;;;;;;39.58;18.75;;;;;;;;;;5030721;28;20411;-78
2022/12/02 02:07:34;;;;;;;39.42;18.63;;;;;;;;;;5037000;28;20052;-78
2022/12/02 02:10:00;;;;;;;41.72;17.95;;;;;;;;;;5037419;28;20158;-78
2022/12/02 02:12:26;;;;;;;40.80;18.30;;;;;;;;;;5037849;28;20049;-78
2022/12/02 02:14:53;;;;;;;35.85;16.65;;;;;;;;;;5035681;28;20053;-78
2022/12/02 02:17:19;;;;;;;34.65;17.23;;;;;;;;;;5037586;28;20137;-79
2022/12/02 02:19:45;;;;;;;34.30;17.08;;;;;;;;;;5037619;28;20492;-78
2022/12/02 02:22:14;;;;;;;36.80;18.55;;;;;;;;;;5036646;28;20058;-78
2022/12/02 02:24:40;;;;;;;39.00;17.48;;;;;;;;;;5032774;28;20042;-78
2022/12/02 02:27:06;;;;;;;38.03;17.13;;;;;;;;;;5017579;28;20042;-78
2022/12/02 02:29:32;;;;;;;35.22;17.08;;;;;;;;;;5021666;28;20399;-78
2022/12/02 02:31:59;;;;;;;35.95;17.35;;;;;;;;;;5036687;28;20045;-78
2022/12/02 02:34:26;;;;;;;32.22;16.30;;;;;;;;;;5018607;28;20049;-78
2022/12/02 02:36:52;;;;;;;37.47;16.80;;;;;;;;;;5017037;28;20117;-78
2022/12/02 02:39:18;;;;;;;35.22;16.10;;;;;;;;;;5016519;28;20073;-78
2022/12/02 02:41:44;;;;;;;33.63;16.30;;;;;;;;;;5016379;28;20511;-78
2022/12/02 02:44:10;;;;;;;33.42;16.92;;;;;;;;;;5026462;28;20045;-78
2022/12/02 02:46:36;;;;;;;38.38;17.58;;;;;;;;;;5036230;28;20045;-78
2022/12/02 02:49:03;;;;;;;36.17;17.15;;;;;;;;;;5017201;28;20038;-78
2022/12/02 02:51:29;;;;;;;38.45;17.45;;;;;;;;;;5016296;28;20041;-77
2022/12/02 02:53:55;;;;;;;39.13;19.33;;;;;;;;;;5033551;28;20052;-77
2022/12/02 02:56:21;;;;;;;37.42;18.30;;;;;;;;;;5036459;28;20041;-78
2022/12/02 02:58:47;;;;;;;39.15;18.13;;;;;;;;;;5036532;28;20053;-78
2022/12/02 03:01:19;;;;;;;39.42;17.92;;;;;;;;;;5036629;28;20124;-78
2022/12/02 03:03:46;;;;;;;40.15;17.70;;;;;;;;;;5036497;28;20049;-78
2022/12/02 03:06:13;;;;;;;43.80;18.42;;;;;;;;;;5036399;28;20104;-78
2022/12/02 03:08:41;;;;;;;43.53;18.98;;;;;;;;;;5036632;28;20042;-78
2022/12/02 03:11:07;;;;;;;38.10;17.98;;;;;;;;;;5032670;28;20048;-78
2022/12/02 03:13:35;;;;;;;38.72;19.15;;;;;;;;;;5024858;28;20045;-78
2022/12/02 03:16:02;;;;;;;46.17;20.10;;;;;;;;;;5034113;28;20052;-78
2022/12/02 03:18:28;;;;;;;42.63;19.50;;;;;;;;;;5016642;28;20068;-78
2022/12/02 03:20:54;;;;;;;44.03;18.77;;;;;;;;;;5016340;28;20092;-78
2022/12/02 03:23:21;;;;;;;38.17;18.08;;;;;;;;;;5023292;28;20037;-78
2022/12/02 03:25:47;;;;;;;36.30;17.77;;;;;;;;;;5035409;28;20381;-78
2022/12/02 03:28:13;;;;;;;40.78;17.45;;;;;;;;;;5032364;28;20050;-78
2022/12/02 03:30:39;;;;;;;38.58;18.38;;;;;;;;;;5036204;28;20407;-78
2022/12/02 03:33:05;;;;;;;39.42;18.63;;;;;;;;;;5035817;28;20079;-78
2022/12/02 03:35:31;;;;;;;44.38;18.60;;;;;;;;;;5030809;28;20034;-78
2022/12/02 03:37:57;;;;;;;45.80;19.83;;;;;;;;;;5016459;28;20097;-78
2022/12/02 03:40:24;;;;;;;41.92;18.23;;;;;;;;;;5016800;28;20512;-78
2022/12/02 03:42:50;;;;;;;39.08;19.40;;;;;;;;;;5020746;28;20532;-78
2022/12/02 03:45:16;;;;;;;44.63;19.05;;;;;;;;;;5026930;28;20038;-78
2022/12/02 03:47:42;;;;;;;41.95;18.88;;;;;;;;;;5036039;28;20045;-78
2022/12/02 03:50:09;;;;;;;43.78;20.08;;;;;;;;;;5036155;28;20099;-78
2022/12/02 03:52:35;;;;;;;37.95;18.08;;;;;;;;;;5035630;28;20091;-79
2022/12/02 03:55:02;;;;;;;43.25;19.05;;;;;;;;;;5036122;28;20377;-78
2022/12/02 03:57:31;;;;;;;46.75;20.30;;;;;;;;;;5032013;28;20038;-78
2022/12/02 03:59:57;;;;;;;41.95;18.00;;;;;;;;;;5024606;28;20037;-78
2022/12/02 04:02:23;;;;;;;43.92;19.33;;;;;;;;;;5035560;28;20554;-78
2022/12/02 04:04:49;;;;;;;41.13;18.00;;;;;;;;;;5035318;28;20037;-78
2022/12/02 04:07:15;;;;;;;42.05;19.20;;;;;;;;;;5035654;28;20038;-78
2022/12/02 04:09:41;;;;;;;42.80;17.95;;;;;;;;;;5035736;28;20060;-78
2022/12/02 04:12:07;;;;;;;43.08;18.52;;;;;;;;;;5035917;28;20042;-78
2022/12/02 04:14:33;;;;;;;42.67;18.92;;;;;;;;;;5032857;28;20044;-78
2022/12/02 04:16:59;;;;;;;41.08;18.13;;;;;;;;;;5035752;28;20045;-78
2022/12/02 04:19:25;;;;;;;41.92;17.88;;;;;;;;;;5026308;28;20069;-78
2022/12/02 04:21:51;;;;;;;41.83;18.85;;;;;;;;;;5035297;28;20049;-78
2022/12/02 04:24:17;;;;;;;43.30;19.67;;;;;;;;;;5034631;28;20408;-78
2022/12/02 04:26:43;;;;;;;46.25;18.35;;;;;;;;;;5022167;28;20550;-78
2022/12/02 04:29:09;;;;;;;41.95;17.88;;;;;;;;;;5035340;28;20077;-78
2022/12/02 04:31:36;;;;;;;45.58;19.45;;;;;;;;;;5035472;28;20170;-78
2022/12/02 04:34:02;;;;;;;44.47;19.90;;;;;;;;;;5035735;28;20065;-78
2022/12/02 04:36:28;;;;;;;44.60;19.35;;;;;;;;;;5035872;28;20503;-78
2022/12/02 04:38:54;;;;;;;44.10;19.08;;;;;;;;;;5039148;28;20042;-78
2022/12/02 04:41:20;;;;;;;44.17;18.83;;;;;;;;;;5026070;28;20503;-78
2022/12/02 04:43:46;;;;;;;45.13;19.30;;;;;;;;;;5029012;28;20042;-78
2022/12/02 04:46:12;;;;;;;43.30;19.48;;;;;;;;;;5036821;28;20045;-79
2022/12/02 04:48:38;;;;;;;42.00;19.00;;;;;;;;;;5038183;28;20123;-79
2022/12/02 04:51:04;;;;;;;43.65;19.27;;;;;;;;;;5038403;28;20073;-79
2022/12/02 04:53:30;;;;;;;42.58;19.63;;;;;;;;;;5038130;28;20099;-78
2022/12/02 04:55:56;;;;;;;44.33;19.17;;;;;;;;;;5037303;28;20046;-78
2022/12/02 04:58:22;;;;;;;48.45;20.45;;;;;;;;;;5032344;28;20085;-78
2022/12/02 05:00:48;;;;;;;42.55;18.40;;;;;;;;;;5020919;28;20077;-78
2022/12/02 05:03:14;;;;;;;49.35;20.23;;;;;;;;;;5036963;28;20049;-78
2022/12/02 05:05:40;;;;;;;43.78;19.30;;;;;;;;;;5037614;28;20050;-78
2022/12/02 05:08:06;;;;;;;41.55;17.92;;;;;;;;;;5030174;28;20046;-78
2022/12/02 05:10:32;;;;;;;45.20;19.23;;;;;;;;;;5017810;28;20092;-78
2022/12/02 05:12:58;;;;;;;46.75;20.20;;;;;;;;;;5038131;28;20046;-78
2022/12/02 05:15:24;;;;;;;43.65;19.45;;;;;;;;;;5037876;28;20042;-78
2022/12/02 05:17:51;;;;;;;43.13;19.65;;;;;;;;;;5037471;28;20136;-78
2022/12/02 05:20:17;;;;;;;39.85;18.55;;;;;;;;;;5036913;28;20126;-78
2022/12/02 05:22:43;;;;;;;44.05;17.75;;;;;;;;;;5018145;28;20041;-78
2022/12/02 05:25:09;;;;;;;43.90;19.98;;;;;;;;;;5018390;28;20045;-78
2022/12/02 05:27:35;;;;;;;39.88;18.50;;;;;;;;;;5018693;28;20081;-78
2022/12/02 05:30:02;;;;;;;38.78;17.55;;;;;;;;;;5038318;28;20107;-78
2022/12/02 05:32:28;;;;;;;48.87;23.27;;;;;;;;;;5036657;28;24450;-78
2022/12/02 05:34:54;;;;;;;42.67;19.23;;;;;;;;;;5038142;28;20560;-78
2022/12/02 05:37:20;;;;;;;34.05;16.05;;;;;;;;;;5038614;28;20105;-78
2022/12/02 05:39:46;;;;;;;32.55;15.20;;;;;;;;;;5038580;28;20052;-78
2022/12/02 05:42:13;;;;;;;40.88;17.42;;;;;;;;;;5038592;28;20041;-78
2022/12/02 05:44:41;;;;;;;32.78;14.95;;;;;;;;;;5038498;28;20412;-78
2022/12/02 05:47:11;;;;;;;34.05;15.85;;;;;;;;;;5038406;28;20089;-78
2022/12/02 05:49:38;;;;;;;33.35;15.43;;;;;;;;;;5038707;28;20081;-78
2022/12/02 05:52:12;;;;;;;36.60;15.80;;;;;;;;;;5024358;28;20042;-78
2022/12/02 05:54:38;;;;;;;35.45;15.35;;;;;;;;;;5019267;28;20133;-78
2022/12/02 05:57:07;;;;;;;36.78;16.67;;;;;;;;;;5032479;28;20052;-78
2022/12/02 05:59:33;;;;;;;35.67;16.95;;;;;;;;;;5038010;28;20045;-78
2022/12/02 06:01:59;;;;;;;38.00;17.52;;;;;;;;;;5027790;28;20125;-78
2022/12/02 06:04:28;;;;;;;34.25;15.63;;;;;;;;;;5023719;28;20073;-78
2022/12/02 06:06:55;;;;;;;37.58;16.42;;;;;;;;;;5019040;28;20076;-78
2022/12/02 06:09:25;;;;;;;40.08;16.42;;;;;;;;;;5018066;28;20272;-78
2022/12/02 06:11:51;;;;;;;40.75;18.20;;;;;;;;;;5018358;28;20072;-78
2022/12/02 06:14:17;;;;;;;37.60;16.75;;;;;;;;;;5018928;28;20132;-78
2022/12/02 06:17:03;;;;;;;40.53;16.55;;;;;;;;;;5037777;28;20076;-78
2022/12/02 06:19:29;;;;;;;42.05;17.90;;;;;;;;;;5037439;28;20131;-78
2022/12/02 06:21:56;;;;;;;41.53;16.90;;;;;;;;;;5038043;28;20056;-78
2022/12/02 06:24:29;;;;;;;39.17;17.08;;;;;;;;;;5037503;28;20049;-78
2022/12/02 06:26:57;;;;;;;36.42;16.63;;;;;;;;;;5016465;28;20042;-78
2022/12/02 06:29:24;;;;;;;32.38;15.25;;;;;;;;;;5017549;28;20457;-78
2022/12/02 06:31:50;;;;;;;34.75;14.95;;;;;;;;;;5035507;28;20384;-78
2022/12/02 06:34:19;;;;;;;37.40;15.65;;;;;;;;;;5020550;28;20053;-78
2022/12/02 06:36:45;;;;;;;38.97;16.38;;;;;;;;;;5037135;28;20049;-78
2022/12/02 06:39:29;;;;;;;38.25;17.52;;;;;;;;;;5036882;28;20045;-78
2022/12/02 06:41:55;;;;;;;37.60;17.10;;;;;;;;;;5033935;28;20068;-78
2022/12/02 06:47:28;;;;;;;40.42;17.75;;;;;;;;;;5039089;28;20050;-79
2022/12/02 06:50:03;;;;;;;43.95;17.80;;;;;;;;;;5018651;28;20568;-77
2022/12/02 06:52:32;;;;;;;40.92;18.08;;;;;;;;;;5023182;28;20065;-78
2022/12/02 06:54:58;;;;;;;43.45;17.00;;;;;;;;;;5028246;28;20049;-78
2022/12/02 06:57:24;;;;;;;44.47;17.92;;;;;;;;;;5020157;28;20037;-78
2022/12/02 06:59:51;;;;;;;43.75;16.55;;;;;;;;;;5037082;28;20056;-78
2022/12/02 07:02:26;;;;;;;41.50;18.38;;;;;;;;;;5036952;28;20048;-78
2022/12/02 07:04:52;;;;;;;38.28;17.00;;;;;;;;;;5036948;28;20213;-78
2022/12/02 07:07:22;;;;;;;42.15;16.77;;;;;;;;;;5021043;28;20054;-78
2022/12/02 07:09:51;;;;;;;40.45;16.27;;;;;;;;;;5015859;28;20042;-78
2022/12/02 07:12:22;;;;;;;35.83;16.50;;;;;;;;;;5029083;28;20048;-78
2022/12/02 07:14:50;;;;;;;40.92;16.40;;;;;;;;;;5024080;28;20037;-78
2022/12/02 07:17:16;;;;;;;39.38;16.98;;;;;;;;;;5026438;28;20050;-78
2022/12/02 07:19:44;;;;;;;39.33;16.48;;;;;;;;;;5029032;28;20451;-78
2022/12/02 07:22:24;;;;;;;41.60;16.65;;;;;;;;;;5038248;28;20072;-78
2022/12/02 07:25:09;;;;;;;37.33;17.55;;;;;;;;;;5023119;28;20562;-78
2022/12/02 07:27:37;;;;;;;41.97;17.30;;;;;;;;;;5030281;28;20041;-78
2022/12/02 07:30:04;;;;;;;38.90;16.33;;;;;;;;;;5021878;28;20042;-78
2022/12/02 07:32:30;;;;;;;36.13;15.02;;;;;;;;;;5038889;28;20042;-78
2022/12/02 07:34:56;;;;;;;39.78;16.15;;;;;;;;;;5040834;28;20447;-78
2022/12/02 07:37:22;;;;;;;40.80;16.25;;;;;;;;;;5043867;28;20099;-78
2022/12/02 07:39:48;;;;;;;36.38;15.35;;;;;;;;;;5045040;28;20124;-78
2022/12/02 07:42:14;;;;;;;30.55;14.27;;;;;;;;;;5039380;28;20061;-78
2022/12/02 07:44:40;;;;;;;28.25;11.75;;;;;;;;;;5022549;28;20049;-78
2022/12/02 07:47:07;;;;;;;28.05;12.50;;;;;;;;;;5030581;28;20042;-78
2022/12/02 07:49:33;;;;;;;31.05;12.85;;;;;;;;;;5038788;28;20041;-78
2022/12/02 07:51:59;;;;;;;31.48;12.93;;;;;;;;;;5048242;28;20080;-78
2022/12/02 07:54:25;;;;;;;29.30;13.18;;;;;;;;;;5049577;28;20095;-78
2022/12/02 07:56:51;;;;;;;34.28;13.70;;;;;;;;;;5041646;28;20046;-78
2022/12/02 07:59:17;;;;;;;32.95;14.25;;;;;;;;;;5043039;28;20049;-78
2022/12/02 08:01:44;;;;;;;36.92;14.55;;;;;;;;;;5042602;28;20095;-78
2022/12/02 08:04:10;;;;;;;40.45;14.82;;;;;;;;;;5042895;28;20045;-78
2022/12/02 08:06:36;;;;;;;30.13;12.80;;;;;;;;;;5043688;28;20041;-78
2022/12/02 08:09:02;;;;;;;31.45;14.23;;;;;;;;;;5027366;28;20046;-78
2022/12/02 08:11:28;;;;;;;36.22;15.20;;;;;;;;;;5033731;28;20048;-79
2022/12/02 08:13:54;;;;;;;39.42;15.52;;;;;;;;;;5031195;28;20073;-78
2022/12/02 08:16:20;;;;;;;35.53;14.10;;;;;;;;;;5020684;28;20046;-82
2022/12/02 08:18:50;;;;;;;32.15;14.63;;;;;;;;;;5044497;28;20118;-83
2022/12/02 08:21:17;;;;;;;36.97;15.65;;;;;;;;;;5022127;28;20050;-83
2022/12/02 08:23:43;;;;;;;31.77;12.90;;;;;;;;;;5029825;28;20391;-81
2022/12/02 08:26:15;;;;;;;29.73;11.98;;;;;;;;;;5044997;28;20041;-81
2022/12/02 08:28:41;;;;;;;29.88;12.75;;;;;;;;;;5044549;28;20099;-81
2022/12/02 08:31:15;;;;;;;26.45;12.60;;;;;;;;;;5041432;28;20101;-82
2022/12/02 08:33:59;;;;;;;34.08;14.57;;;;;;;;;;5060523;28;20080;-82
2022/12/02 08:36:25;;;;;;;29.38;14.10;;;;;;;;;;5028132;28;20041;-82
2022/12/02 08:38:57;;;;;;;34.17;15.60;;;;;;;;;;5042310;28;20070;-81
2022/12/02 08:41:23;;;;;;;41.20;15.93;;;;;;;;;;5027603;28;20053;-82
2022/12/02 08:44:00;;;;;;;36.97;16.65;;;;;;;;;;5040676;28;20045;-82
2022/12/02 08:46:29;;;;;;;41.92;19.02;;;;;;;;;;5024127;28;20046;-81
2022/12/02 08:49:00;;;;;;;42.72;18.52;;;;;;;;;;5040397;28;20041;-81
2022/12/02 08:51:29;;;;;;;38.15;16.75;;;;;;;;;;5026882;28;20045;-82
2022/12/02 08:53:57;;;;;;;39.95;17.55;;;;;;;;;;5042073;28;20041;-82
2022/12/02 08:56:24;;;;;;;40.28;17.90;;;;;;;;;;5025124;28;20500;-82
2022/12/02 08:58:54;;;;;;;35.20;16.23;;;;;;;;;;5042227;28;20171;-82
2022/12/02 09:01:25;;;;;;;38.33;16.75;;;;;;;;;;5006960;28;20052;-82
2022/12/02 09:03:52;;;;;;;33.97;15.05;;;;;;;;;;5029508;28;20085;-82
2022/12/02 09:06:18;;;;;;;27.17;13.35;;;;;;;;;;5034301;28;20038;-82
2022/12/02 09:08:44;;;;;;;26.83;13.50;;;;;;;;;;5057609;28;20042;-82
2022/12/02 09:11:13;;;;;;;30.40;14.15;;;;;;;;;;5035570;28;20048;-82
2022/12/02 09:13:40;;;;;;;24.27;13.07;;;;;;;;;;5052046;28;20049;-78
2022/12/02 09:16:06;;;;;;;26.33;12.35;;;;;;;;;;5036983;28;20049;-78
2022/12/02 09:18:32;;;;;;;25.40;12.77;;;;;;;;;;5039822;28;20061;-81
2022/12/02 09:20:58;;;;;;;26.92;12.35;;;;;;;;;;5048941;28;20044;-78
2022/12/02 09:23:24;;;;;;;25.27;12.38;;;;;;;;;;5057156;28;20045;-77
2022/12/02 09:25:50;;;;;;;24.95;12.10;;;;;;;;;;5036377;28;20053;-77
2022/12/02 09:28:16;;;;;;;25.75;11.95;;;;;;;;;;5037111;28;20037;-77
2022/12/02 09:30:42;;;;;;;21.55;10.45;;;;;;;;;;5036801;28;20049;-77
2022/12/02 09:33:10;;;;;;;23.00;11.00;;;;;;;;;;5031827;28;20045;-77
2022/12/02 09:35:36;;;;;;;18.05;9.77;;;;;;;;;;5017843;28;20038;-77
2022/12/02 09:38:02;;;;;;;26.25;11.32;;;;;;;;;;5027661;28;20132;-77
2022/12/02 09:40:28;;;;;;;24.75;9.90;;;;;;;;;;5018938;28;20074;-77
2022/12/02 09:42:54;;;;;;;22.90;10.50;;;;;;;;;;5028105;28;20037;-77
2022/12/02 09:45:20;;;;;;;24.90;10.73;;;;;;;;;;5028490;28;20064;-77
2022/12/02 09:47:46;;;;;;;21.25;11.23;;;;;;;;;;5016751;28;20041;-78
2022/12/02 09:50:13;;;;;;;23.30;10.98;;;;;;;;;;5035786;28;20041;-77
2022/12/02 09:52:40;;;;;;;26.88;12.80;;;;;;;;;;5040387;28;20053;-81
2022/12/02 09:55:16;;;;;;;27.02;12.80;;;;;;;;;;5021180;28;20069;-80
2022/12/02 09:57:46;;;;;;;24.73;12.05;;;;;;;;;;5020091;28;20042;-82
2022/12/02 10:00:17;;;;;;;28.27;12.85;;;;;;;;;;5019320;28;20484;-83
2022/12/02 10:02:44;;;;;;;25.17;12.15;;;;;;;;;;5018862;28;20045;-82
2022/12/02 10:05:17;;;;;;;30.25;13.32;;;;;;;;;;5057684;28;20042;-82
2022/12/02 10:07:43;;;;;;;26.92;12.98;;;;;;;;;;5019964;28;20042;-81
2022/12/02 10:10:15;;;;;;;24.55;11.55;;;;;;;;;;5020604;28;20057;-83
2022/12/02 10:12:41;;;;;;;26.25;11.93;;;;;;;;;;5024816;28;20053;-83
2022/12/02 10:15:08;;;;;;;24.75;12.27;;;;;;;;;;5026131;28;20102;-83
2022/12/02 10:17:34;;;;;;;23.10;11.57;;;;;;;;;;5025267;28;20475;-83
2022/12/02 10:20:00;;;;;;;20.98;11.20;;;;;;;;;;5024512;28;20065;-83
2022/12/02 10:22:29;;;;;;;24.30;11.60;;;;;;;;;;5039289;28;20068;-83
2022/12/02 10:24:55;;;;;;;22.45;11.77;;;;;;;;;;5023678;28;20060;-83
2022/12/02 10:27:32;;;;;;;23.65;11.60;;;;;;;;;;5022336;28;20053;-83
2022/12/02 10:30:15;;;;;;;24.20;11.88;;;;;;;;;;5022136;28;20111;-83
2022/12/02 10:32:41;;;;;;;26.45;12.52;;;;;;;;;;5021592;28;20049;-83
2022/12/02 10:35:08;;;;;;;24.13;12.75;;;;;;;;;;5023018;28;20056;-83
2022/12/02 10:37:35;;;;;;;24.38;12.55;;;;;;;;;;5016157;28;20073;-83
2022/12/02 10:40:15;;;;;;;27.17;13.32;;;;;;;;;;5028997;28;20067;-82
2022/12/02 10:42:45;;;;;;;25.85;13.30;;;;;;;;;;5039701;28;20048;-83
2022/12/02 10:45:16;;;;;;;25.45;13.40;;;;;;;;;;5052657;28;20124;-82
2022/12/02 10:47:43;;;;;;;26.58;13.68;;;;;;;;;;5076273;28;20495;-79
2022/12/02 10:50:22;;;;;;;25.75;12.85;;;;;;;;;;5045712;28;20041;-80
2022/12/02 10:52:50;;;;;;;27.05;13.93;;;;;;;;;;5047630;28;20054;-79
2022/12/02 10:55:17;;;;;;;26.17;13.50;;;;;;;;;;5022443;28;20104;-80
2022/12/02 10:57:44;;;;;;;24.00;13.00;;;;;;;;;;5038046;28;20049;-80
2022/12/02 11:00:13;;;;;;;26.60;12.60;;;;;;;;;;5020364;28;20040;-78
2022/12/02 11:02:44;;;;;;;27.17;13.40;;;;;;;;;;5033511;28;20061;-77
2022/12/02 11:05:15;;;;;;;32.03;14.48;;;;;;;;;;5035683;28;20140;-77
2022/12/02 11:07:49;;;;;;;30.90;15.10;;;;;;;;;;5041740;28;20125;-77
2022/12/02 11:10:20;;;;;;;29.55;15.65;;;;;;;;;;5034595;28;20474;-77
2022/12/02 11:12:49;;;;;;;31.25;15.15;;;;;;;;;;5020462;28;20054;-77
2022/12/02 11:15:32;;;;;;;32.03;16.85;;;;;;;;;;5025546;28;20100;-77
2022/12/02 11:17:58;;;;;;;30.98;15.27;;;;;;;;;;5029947;28;20124;-77
2022/12/02 11:20:36;;;;;;;32.15;15.90;;;;;;;;;;5027299;28;20083;-77
2022/12/02 11:23:15;;;;;;;31.00;16.48;;;;;;;;;;5036157;28;20052;-77
2022/12/02 11:25:46;;;;;;;35.25;16.42;;;;;;;;;;5030127;28;20132;-78
2022/12/02 11:28:18;;;;;;;33.20;17.25;;;;;;;;;;5036657;28;20037;-79
2022/12/02 11:30:45;;;;;;;36.40;18.77;;;;;;;;;;5037549;28;20046;-79
2022/12/02 11:33:12;;;;;;;38.80;20.15;;;;;;;;;;5037154;28;20037;-78
2022/12/02 11:35:57;;;;;;;35.72;17.92;;;;;;;;;;5034356;28;20065;-77
2022/12/02 11:38:25;;;;;;;38.08;19.05;;;;;;;;;;5033012;28;20475;-77
2022/12/02 11:41:01;;;;;;;36.10;19.02;;;;;;;;;;5034388;28;20458;-78
2022/12/02 11:43:40;;;;;;;35.60;19.80;;;;;;;;;;5032788;28;20047;-78
2022/12/02 11:46:06;;;;;;;36.92;19.50;;;;;;;;;;5015732;28;20052;-78
2022/12/02 11:48:32;;;;;;;36.35;18.33;;;;;;;;;;5033361;28;20053;-78
2022/12/02 11:50:58;;;;;;;39.33;19.45;;;;;;;;;;5033044;28;20049;-78
2022/12/02 11:53:24;;;;;;;34.70;18.13;;;;;;;;;;5035236;28;20045;-78
2022/12/02 11:55:51;;;;;;;36.33;18.60;;;;;;;;;;5035471;28;20052;-78
2022/12/02 11:58:18;;;;;;;37.67;17.65;;;;;;;;;;5033332;28;20045;-78
2022/12/02 12:01:04;;;;;;;35.40;18.98;;;;;;;;;;5032200;28;20132;-78
2022/12/02 12:03:30;;;;;;;37.77;19.27;;;;;;;;;;5028484;28;20073;-77
2022/12/02 12:06:15;;;;;;;37.33;19.10;;;;;;;;;;5029405;28;20048;-77
2022/12/02 12:08:43;;;;;;;35.95;18.67;;;;;;;;;;5025646;28;20042;-77
2022/12/02 12:11:29;;;;;;;35.10;17.95;;;;;;;;;;5034307;28;20049;-77
2022/12/02 12:14:04;;;;;;;33.90;17.95;;;;;;;;;;5024987;28;20042;-78
2022/12/02 12:16:31;;;;;;;36.13;18.05;;;;;;;;;;5028030;28;20037;-79
2022/12/02 12:19:01;;;;;;;35.08;18.02;;;;;;;;;;5024275;28;20053;-79
2022/12/02 12:21:30;;;;;;;34.00;17.80;;;;;;;;;;5020347;28;20041;-79
2022/12/02 12:24:21;;;;;;;33.70;17.38;;;;;;;;;;5016221;28;20085;-79
2022/12/02 12:26:47;;;;;;;31.63;17.30;;;;;;;;;;5034927;28;20084;-79
2022/12/02 12:29:13;;;;;;;32.35;17.85;;;;;;;;;;5035978;28;20050;-79
2022/12/02 12:31:39;;;;;;;34.83;16.92;;;;;;;;;;5036154;28;20049;-79
2022/12/02 12:34:05;;;;;;;32.67;16.92;;;;;;;;;;5035099;28;20041;-79
2022/12/02 12:36:31;;;;;;;30.38;15.60;;;;;;;;;;5036165;28;20073;-79
2022/12/02 12:38:57;;;;;;;31.45;16.10;;;;;;;;;;5022443;28;20042;-79
2022/12/02 12:41:23;;;;;;;29.75;16.73;;;;;;;;;;5036577;28;20042;-79
2022/12/02 12:43:49;;;;;;;26.13;13.52;;;;;;;;;;5034196;28;20042;-79
2022/12/02 12:46:16;;;;;;;28.55;14.63;;;;;;;;;;5018720;28;20131;-79
2022/12/02 12:48:42;;;;;;;29.00;15.23;;;;;;;;;;5019673;28;20100;-79
2022/12/02 12:51:08;;;;;;;27.40;14.32;;;;;;;;;;5016963;28;20050;-79
2022/12/02 12:53:34;;;;;;;27.30;14.63;;;;;;;;;;5017897;28;20112;-79
2022/12/02 12:56:00;;;;;;;26.75;13.90;;;;;;;;;;5025096;28;20076;-79
2022/12/02 12:58:26;;;;;;;25.45;13.75;;;;;;;;;;5038251;28;20099;-79
2022/12/02 13:00:52;;;;;;;28.08;14.18;;;;;;;;;;5038061;28;20045;-79
2022/12/02 13:03:18;;;;;;;23.70;11.85;;;;;;;;;;5028340;28;20045;-79
2022/12/02 13:05:45;;;;;;;28.27;14.15;;;;;;;;;;5031732;28;20042;-78
2022/12/02 13:08:11;;;;;;;23.77;12.40;;;;;;;;;;5037133;28;20042;-78
2022/12/02 13:10:37;;;;;;;24.75;13.70;;;;;;;;;;5037474;28;20370;-79
2022/12/02 13:13:03;;;;;;;25.17;12.45;;;;;;;;;;5034210;28;20519;-78
2022/12/02 13:15:29;;;;;;;25.27;12.20;;;;;;;;;;5018149;28;20068;-78
2022/12/02 13:17:55;;;;;;;26.45;13.13;;;;;;;;;;5023480;28;20107;-79
2022/12/02 13:20:21;;;;;;;24.73;13.02;;;;;;;;;;5039034;28;20051;-78
2022/12/02 13:22:47;;;;;;;25.58;12.15;;;;;;;;;;5022280;28;20121;-80
2022/12/02 13:25:14;;;;;;;25.38;12.80;;;;;;;;;;5030189;28;20435;-78
2022/12/02 13:27:40;;;;;;;23.40;11.63;;;;;;;;;;5019282;28;20056;-78
2022/12/02 13:30:07;;;;;;;25.95;12.45;;;;;;;;;;5028859;28;20049;-78
2022/12/02 13:32:33;;;;;;;28.17;13.63;;;;;;;;;;5041359;28;20057;-79
2022/12/02 13:34:59;;;;;;;27.83;14.75;;;;;;;;;;5040058;28;20045;-80
2022/12/02 13:37:25;;;;;;;27.63;13.60;;;;;;;;;;5041236;28;20053;-79
2022/12/02 13:39:51;;;;;;;26.83;13.75;;;;;;;;;;5041292;28;20084;-79
2022/12/02 13:42:17;;;;;;;29.10;14.50;;;;;;;;;;5041159;28;20531;-78
2022/12/02 13:44:43;;;;;;;31.00;15.68;;;;;;;;;;5040272;28;20443;-79
2022/12/02 13:47:09;;;;;;;29.67;14.15;;;;;;;;;;5038006;28;20479;-78
2022/12/02 13:49:38;;;;;;;33.88;15.55;;;;;;;;;;5055090;28;20041;-79
2022/12/02 13:52:04;;;;;;;29.05;13.98;;;;;;;;;;5041758;28;20049;-79
2022/12/02 13:54:30;;;;;;;29.17;15.38;;;;;;;;;;5038624;28;20053;-79
2022/12/02 13:56:56;;;;;;;28.52;13.65;;;;;;;;;;5026931;28;20042;-79
2022/12/02 13:59:22;;;;;;;31.90;16.10;;;;;;;;;;5033898;28;20037;-79
2022/12/02 14:01:48;;;;;;;35.33;15.80;;;;;;;;;;5038808;28;20407;-79
2022/12/02 14:04:15;;;;;;;27.02;13.90;;;;;;;;;;5040022;28;20045;-80
2022/12/02 14:06:41;;;;;;;29.98;14.48;;;;;;;;;;5039136;28;20044;-79
2022/12/02 14:09:07;;;;;;;31.02;13.93;;;;;;;;;;5039344;28;20063;-79
2022/12/02 14:11:33;;;;;;;32.80;16.10;;;;;;;;;;5038723;28;20132;-79
2022/12/02 14:13:59;;;;;;;30.73;15.32;;;;;;;;;;5033542;28;20042;-79
2022/12/02 14:16:25;;;;;;;32.20;15.27;;;;;;;;;;5031049;28;20563;-79
2022/12/02 14:18:51;;;;;;;33.03;15.85;;;;;;;;;;5031035;28;20135;-79
2022/12/02 14:21:17;;;;;;;31.30;15.25;;;;;;;;;;5031364;28;20089;-79
2022/12/02 14:23:43;;;;;;;31.52;15.05;;;;;;;;;;5025970;28;20050;-79
2022/12/02 14:26:09;;;;;;;30.02;15.60;;;;;;;;;;5028146;28;20488;-79